Time;durP1;ratioP1;P1;durP2;ratioP2;P2;SDS_P1;SDS_P2;PMS_P1;PMS_P2;Temp;Humidity;BMP_temperature;BMP_pressure;BME280_temperature;BME280_humidity;BME280_pressure;Samples;Min_cycle;Max_cycle;Signal;HPM_P1;HPM_P2
2021/01/01 00:00:29;;;;;;;242.48;138.63;;;4.00;95.30;;;;;;5095000;28;20493;-70
2021/01/01 00:02:55;;;;;;;205.30;118.35;;;3.90;95.30;;;;;;5095263;28;20028;-71
2021/01/01 00:05:21;;;;;;;187.90;109.40;;;4.00;95.20;;;;;;5094776;28;20474;-70
2021/01/01 00:07:47;;;;;;;393.52;214.55;;;4.00;95.30;;;;;;5095428;28;20051;-72
2021/01/01 00:10:13;;;;;;;576.53;302.85;;;3.90;95.20;;;;;;5093729;28;20381;-69
2021/01/01 00:12:39;;;;;;;564.10;308.15;;;3.90;95.10;;;;;;5094672;28;20024;-70
2021/01/01 00:15:07;;;;;;;514.40;280.98;;;3.80;95.30;;;;;;5095154;28;20059;-68
2021/01/01 00:17:32;;;;;;;264.50;128.93;;;3.80;95.40;;;;;;5093211;28;20180;-70
2021/01/01 00:19:58;;;;;;;227.77;107.40;;;3.90;95.30;;;;;;5093547;28;20552;-68
2021/01/01 00:22:24;;;;;;;156.82;84.32;;;3.90;95.30;;;;;;5094692;28;20117;-69
2021/01/01 00:24:50;;;;;;;315.35;150.38;;;3.80;95.30;;;;;;5093826;28;20078;-70
2021/01/01 00:27:16;;;;;;;533.35;262.45;;;3.80;95.20;;;;;;5094723;28;20487;-71
2021/01/01 00:29:42;;;;;;;133.93;73.30;;;3.70;95.10;;;;;;5093475;28;20077;-69
2021/01/01 00:32:09;;;;;;;104.55;57.30;;;3.70;95.50;;;;;;5094357;28;20373;-68
2021/01/01 00:34:35;;;;;;;75.55;45.08;;;3.80;95.30;;;;;;5093379;28;20132;-70
2021/01/01 00:37:02;;;;;;;114.53;58.90;;;3.70;95.10;;;;;;5093293;28;20500;-68
2021/01/01 00:39:28;;;;;;;394.20;166.65;;;3.70;95.10;;;;;;5092967;28;20028;-70
2021/01/01 00:41:54;;;;;;;641.33;296.80;;;3.60;95.20;;;;;;5093141;28;20043;-70
2021/01/01 00:44:20;;;;;;;790.30;365.17;;;3.60;95.20;;;;;;5093253;28;20020;-71
2021/01/01 00:46:45;;;;;;;359.02;164.57;;;3.60;95.50;;;;;;5093767;28;20462;-71
2021/01/01 00:49:11;;;;;;;343.27;159.07;;;3.60;95.30;;;;;;5093096;28;20058;-69
2021/01/01 00:51:37;;;;;;;133.98;75.60;;;3.30;95.80;;;;;;5093332;28;20487;-71
2021/01/01 00:54:03;;;;;;;125.93;70.80;;;3.40;96.00;;;;;;5094004;28;20040;-70
2021/01/01 00:56:30;;;;;;;159.23;80.57;;;3.40;96.00;;;;;;5094563;28;20369;-71
2021/01/01 00:58:57;;;;;;;150.73;78.22;;;3.30;95.90;;;;;;5092687;28;20028;-70
2021/01/01 01:01:27;;;;;;;113.82;70.30;;;3.20;95.90;;;;;;5093826;28;20039;-69
2021/01/01 01:03:54;;;;;;;147.02;85.35;;;3.00;96.30;;;;;;5094150;28;20113;-72
2021/01/01 01:06:21;;;;;;;126.18;77.72;;;3.00;96.40;;;;;;5092749;28;20028;-71
2021/01/01 01:08:47;;;;;;;108.85;65.57;;;3.00;96.30;;;;;;5092411;28;20035;-70
2021/01/01 01:11:13;;;;;;;137.02;84.25;;;3.00;96.40;;;;;;5093998;28;20020;-70
2021/01/01 01:13:39;;;;;;;124.82;72.32;;;3.00;96.40;;;;;;5091871;28;20493;-71
2021/01/01 01:16:06;;;;;;;111.63;67.35;;;3.00;96.30;;;;;;5092641;28;20032;-70
2021/01/01 01:18:32;;;;;;;108.32;65.03;;;3.00;96.10;;;;;;5093872;28;20028;-69
2021/01/01 01:20:58;;;;;;;115.35;67.03;;;2.90;96.20;;;;;;5092348;28;20082;-70
2021/01/01 01:23:24;;;;;;;111.38;63.20;;;2.90;96.50;;;;;;5093934;28;20027;-72
2021/01/01 01:25:50;;;;;;;127.07;72.90;;;2.80;96.40;;;;;;5092532;28;20427;-71
2021/01/01 01:28:17;;;;;;;138.07;79.40;;;2.70;96.70;;;;;;5092994;28;20419;-69
2021/01/01 01:30:43;;;;;;;124.82;74.63;;;2.80;96.40;;;;;;5092588;28;20381;-71
2021/01/01 01:33:09;;;;;;;114.75;66.28;;;2.90;96.40;;;;;;5092487;28;20020;-68
2021/01/01 01:35:36;;;;;;;143.88;82.03;;;2.80;96.40;;;;;;5093502;28;20056;-69
2021/01/01 01:38:03;;;;;;;140.05;76.70;;;2.90;96.30;;;;;;5092718;28;20469;-73
2021/01/01 01:40:29;;;;;;;185.93;94.88;;;3.00;96.10;;;;;;5093730;28;20046;-72
2021/01/01 01:42:55;;;;;;;157.07;82.38;;;3.00;95.90;;;;;;5092136;28;20445;-71
2021/01/01 01:45:21;;;;;;;140.13;73.90;;;3.00;95.90;;;;;;5092192;28;20056;-73
2021/01/01 01:47:47;;;;;;;179.48;100.43;;;3.00;96.00;;;;;;5092078;28;20077;-72
2021/01/01 01:50:13;;;;;;;171.73;94.20;;;3.00;95.90;;;;;;5092089;28;20048;-73
2021/01/01 01:52:40;;;;;;;114.72;70.13;;;3.00;96.10;;;;;;5093868;28;20046;-71
2021/01/01 01:55:08;;;;;;;120.07;72.03;;;2.90;96.30;;;;;;5093853;28;20111;-71
2021/01/01 01:57:34;;;;;;;96.50;58.88;;;2.90;96.20;;;;;;5093030;28;20024;-69
2021/01/01 02:00:20;;;;;;;113.00;67.25;;;2.90;96.10;;;;;;5093524;28;20047;-69
2021/01/01 02:02:46;;;;;;;100.20;60.60;;;2.90;96.00;;;;;;5093052;28;20032;-72
2021/01/01 02:05:13;;;;;;;101.03;58.55;;;2.80;96.20;;;;;;5093380;28;20032;-70
2021/01/01 02:07:39;;;;;;;89.65;53.15;;;2.70;96.40;;;;;;5092771;28;20453;-72
2021/01/01 02:10:06;;;;;;;78.63;47.40;;;2.50;96.50;;;;;;5093099;28;20031;-72
2021/01/01 02:12:32;;;;;;;69.80;43.58;;;2.60;96.70;;;;;;5092050;28;20028;-70
2021/01/01 02:14:58;;;;;;;98.22;59.53;;;2.70;96.40;;;;;;5092060;28;20055;-70
2021/01/01 02:17:24;;;;;;;100.90;56.88;;;2.70;96.10;;;;;;5093073;28;20369;-72
2021/01/01 02:20:06;;;;;;;75.75;44.15;;;2.60;96.10;;;;;;5093619;28;20028;-73
2021/01/01 02:22:34;;;;;;;58.90;36.85;;;2.80;96.00;;;;;;5093610;28;20374;-71
2021/01/01 02:25:00;;;;;;;62.78;38.28;;;2.80;95.80;;;;;;5091934;28;20034;-70
2021/01/01 02:27:26;;;;;;;79.80;46.08;;;2.80;95.80;;;;;;5093503;28;20032;-71
2021/01/01 02:29:52;;;;;;;58.95;37.60;;;2.80;95.70;;;;;;5092345;28;20028;-72
2021/01/01 02:32:18;;;;;;;57.13;36.72;;;2.80;95.60;;;;;;5091606;28;20136;-73
2021/01/01 02:34:44;;;;;;;58.45;36.85;;;2.80;95.70;;;;;;5092185;28;20028;-71
2021/01/01 02:37:09;;;;;;;58.13;38.20;;;2.90;95.70;;;;;;5091987;28;20059;-71
2021/01/01 02:39:37;;;;;;;54.95;34.70;;;2.90;95.50;;;;;;5092663;28;20477;-70
2021/01/01 02:42:04;;;;;;;53.00;34.10;;;2.90;95.40;;;;;;5094654;28;20024;-71
2021/01/01 02:44:30;;;;;;;56.50;36.67;;;2.80;95.40;;;;;;5095157;28;20028;-70
2021/01/01 02:47:03;;;;;;;45.25;29.55;;;2.90;95.80;;;;;;5096625;28;20024;-70
2021/01/01 02:49:29;;;;;;;40.83;26.60;;;2.90;95.80;;;;;;5095412;28;20037;-71
2021/01/01 02:51:55;;;;;;;41.95;28.10;;;2.80;95.80;;;;;;5096582;28;20024;-70
2021/01/01 02:54:20;;;;;;;39.83;25.67;;;2.80;96.00;;;;;;5096599;28;20193;-69
2021/01/01 02:56:46;;;;;;;38.33;24.13;;;2.80;96.00;;;;;;5094974;28;20141;-71
2021/01/01 02:59:12;;;;;;;39.08;24.30;;;2.80;95.70;;;;;;5096177;28;20423;-69
2021/01/01 03:01:38;;;;;;;42.88;26.70;;;2.90;95.80;;;;;;5095158;28;20526;-69
2021/01/01 03:04:04;;;;;;;45.80;28.05;;;2.80;95.90;;;;;;5095147;28;20059;-71
2021/01/01 03:06:30;;;;;;;58.97;33.03;;;2.90;96.00;;;;;;5096090;28;20028;-70
2021/01/01 03:08:55;;;;;;;55.72;32.00;;;2.90;95.50;;;;;;5096285;28;20028;-71
2021/01/01 03:11:21;;;;;;;65.18;38.38;;;3.00;95.60;;;;;;5095233;28;20036;-71
2021/01/01 03:13:47;;;;;;;72.72;41.88;;;3.00;95.10;;;;;;5096009;28;20044;-69
2021/01/01 03:16:13;;;;;;;75.28;41.50;;;2.90;95.10;;;;;;5095026;28;20408;-71
2021/01/01 03:18:38;;;;;;;60.40;36.88;;;2.90;95.30;;;;;;5096137;28;20453;-70
2021/01/01 03:21:04;;;;;;;62.17;37.63;;;3.00;95.60;;;;;;5094505;28;20024;-70
2021/01/01 03:23:30;;;;;;;69.20;38.88;;;3.00;95.10;;;;;;5094762;28;20024;-70
2021/01/01 03:25:56;;;;;;;62.97;37.83;;;3.00;95.10;;;;;;5094577;28;20097;-69
2021/01/01 03:28:22;;;;;;;61.15;38.13;;;2.90;95.10;;;;;;5094340;28;20111;-71
2021/01/01 03:30:48;;;;;;;58.85;36.70;;;2.90;94.90;;;;;;5094590;28;20028;-69
2021/01/01 03:33:13;;;;;;;61.45;37.65;;;2.90;94.90;;;;;;5094613;28;20024;-70
2021/01/01 03:35:39;;;;;;;61.28;35.90;;;2.90;95.00;;;;;;5095201;28;20477;-70
2021/01/01 03:38:06;;;;;;;59.80;36.05;;;2.90;95.00;;;;;;5095717;28;20453;-69
2021/01/01 03:40:32;;;;;;;99.90;49.42;;;2.80;95.10;;;;;;5095383;28;20035;-69
2021/01/01 03:42:58;;;;;;;133.20;63.33;;;2.90;95.70;;;;;;5094053;28;20028;-71
2021/01/01 03:45:24;;;;;;;113.53;53.42;;;2.90;95.80;;;;;;5095513;28;20056;-70
2021/01/01 03:47:50;;;;;;;75.20;42.28;;;3.00;95.80;;;;;;5094403;28;20082;-72
2021/01/01 03:50:16;;;;;;;94.20;46.85;;;3.00;95.80;;;;;;5095530;28;20051;-71
2021/01/01 03:52:41;;;;;;;83.95;44.70;;;3.00;95.80;;;;;;5093662;28;20024;-74
2021/01/01 03:55:07;;;;;;;87.60;42.45;;;3.10;95.90;;;;;;5093747;28;20039;-71
2021/01/01 03:57:33;;;;;;;95.97;47.28;;;3.10;95.70;;;;;;5095972;28;20066;-71
2021/01/01 03:59:59;;;;;;;115.90;55.33;;;3.10;95.60;;;;;;5094057;28;20477;-72
2021/01/01 04:02:25;;;;;;;99.47;48.50;;;3.10;95.40;;;;;;5093661;28;20035;-69
2021/01/01 04:04:50;;;;;;;83.18;44.42;;;3.10;95.30;;;;;;5093533;28;20028;-71
2021/01/01 04:07:19;;;;;;;84.55;43.63;;;3.10;95.10;;;;;;5093895;28;20162;-71
2021/01/01 04:09:45;;;;;;;70.70;40.67;;;3.10;95.50;;;;;;5094788;28;20153;-70
2021/01/01 04:12:10;;;;;;;69.30;41.58;;;3.10;95.10;;;;;;5093822;28;20119;-71
2021/01/01 04:14:36;;;;;;;68.55;42.20;;;3.10;95.20;;;;;;5095396;28;20048;-69
2021/01/01 04:17:02;;;;;;;93.05;54.05;;;3.00;95.10;;;;;;5093653;28;20028;-71
2021/01/01 04:19:28;;;;;;;76.15;46.50;;;3.10;95.30;;;;;;5093720;28;20115;-70
2021/01/01 04:21:53;;;;;;;73.20;41.15;;;3.10;95.20;;;;;;5093573;28;20024;-69
2021/01/01 04:24:19;;;;;;;74.05;42.53;;;3.10;95.10;;;;;;5094322;28;20073;-69
2021/01/01 04:26:45;;;;;;;63.72;38.50;;;3.00;95.00;;;;;;5093716;28;20105;-69
2021/01/01 04:29:11;;;;;;;70.25;38.97;;;3.00;95.20;;;;;;5094805;28;20036;-72
2021/01/01 04:31:38;;;;;;;63.08;37.47;;;3.00;95.00;;;;;;5094423;28;20058;-72
2021/01/01 04:34:04;;;;;;;56.47;35.08;;;2.90;95.40;;;;;;5093350;28;20028;-70
2021/01/01 04:36:30;;;;;;;50.72;32.85;;;2.90;96.00;;;;;;5094322;28;20485;-72
2021/01/01 04:38:56;;;;;;;49.58;31.77;;;2.90;96.00;;;;;;5093294;28;20024;-72
2021/01/01 04:41:22;;;;;;;46.85;30.30;;;2.90;95.90;;;;;;5094526;28;20077;-69
2021/01/01 04:43:52;;;;;;;46.17;28.60;;;3.00;95.80;;;;;;5094220;28;20028;-70
2021/01/01 04:46:19;;;;;;;51.65;29.15;;;3.00;95.60;;;;;;5094346;28;20027;-71
2021/01/01 04:48:46;;;;;;;50.28;29.60;;;3.00;95.80;;;;;;5094412;28;20024;-71
2021/01/01 04:51:12;;;;;;;49.22;28.52;;;3.00;95.80;;;;;;5092715;28;20035;-71
2021/01/01 04:53:40;;;;;;;43.72;28.38;;;2.90;95.90;;;;;;5092561;28;20028;-70
2021/01/01 04:56:07;;;;;;;44.17;26.88;;;2.90;96.30;;;;;;5092426;28;20122;-69
2021/01/01 04:58:34;;;;;;;37.88;25.60;;;2.80;96.60;;;;;;5091848;28;20024;-69
2021/01/01 05:01:00;;;;;;;36.05;25.60;;;2.80;96.70;;;;;;5092304;28;20020;-70
2021/01/01 05:03:27;;;;;;;42.63;26.23;;;2.80;96.60;;;;;;5090393;28;20031;-69
2021/01/01 05:05:53;;;;;;;37.60;26.08;;;2.70;96.40;;;;;;5091030;28;20501;-72
2021/01/01 05:08:20;;;;;;;45.55;30.70;;;2.80;96.50;;;;;;5092609;28;20032;-71
2021/01/01 05:10:46;;;;;;;41.15;26.58;;;2.70;96.50;;;;;;5093920;28;20028;-71
2021/01/01 05:13:17;;;;;;;40.13;27.92;;;2.80;96.40;;;;;;5093520;28;20482;-73
2021/01/01 05:15:45;;;;;;;45.38;28.02;;;2.80;96.20;;;;;;5094039;28;20099;-69
2021/01/01 05:18:24;;;;;;;46.70;29.77;;;2.80;96.30;;;;;;5092668;28;20024;-69
2021/01/01 05:20:54;;;;;;;50.65;29.48;;;2.80;96.40;;;;;;5094802;28;20103;-73
2021/01/01 05:23:21;;;;;;;47.97;28.33;;;2.80;96.40;;;;;;5094499;28;20022;-71
2021/01/01 05:25:49;;;;;;;44.15;28.05;;;2.80;96.30;;;;;;5094606;28;20047;-70
2021/01/01 05:28:15;;;;;;;49.45;27.75;;;2.80;96.30;;;;;;5092532;28;20052;-71
2021/01/01 05:30:42;;;;;;;44.45;27.90;;;2.80;96.30;;;;;;5093521;28;20082;-71
2021/01/01 05:33:14;;;;;;;44.00;28.02;;;2.80;96.40;;;;;;5093570;28;20020;-72
2021/01/01 05:35:40;;;;;;;45.53;29.13;;;2.70;96.50;;;;;;5093053;28;20039;-70
2021/01/01 05:38:17;;;;;;;49.13;30.50;;;2.70;96.40;;;;;;5093503;28;20477;-69
2021/01/01 05:40:48;;;;;;;48.92;28.05;;;2.70;96.30;;;;;;5092121;28;20028;-69
2021/01/01 05:43:32;;;;;;;45.65;28.13;;;2.70;96.10;;;;;;5092468;28;20077;-69
2021/01/01 05:46:08;;;;;;;47.97;29.23;;;2.70;96.40;;;;;;5092501;28;20046;-70
2021/01/01 05:48:35;;;;;;;46.53;27.55;;;2.60;96.50;;;;;;5092101;28;20058;-68
2021/01/01 05:51:08;;;;;;;48.22;30.02;;;2.60;96.40;;;;;;5093652;28;20055;-71
2021/01/01 05:53:33;;;;;;;48.80;31.02;;;2.50;96.20;;;;;;5093597;28;20089;-71
2021/01/01 05:56:09;;;;;;;54.15;29.60;;;2.50;96.30;;;;;;5093640;28;20039;-70
2021/01/01 05:58:35;;;;;;;46.05;26.95;;;2.40;96.20;;;;;;5092520;28;20086;-72
2021/01/01 06:01:03;;;;;;;43.78;25.95;;;2.30;96.30;;;;;;5093281;28;20523;-68
2021/01/01 06:03:34;;;;;;;39.22;26.17;;;2.30;96.30;;;;;;5093861;28;20063;-70
2021/01/01 06:06:06;;;;;;;42.70;27.05;;;2.40;96.30;;;;;;5092219;28;20049;-71
2021/01/01 06:08:33;;;;;;;55.30;32.70;;;2.30;96.10;;;;;;5093255;28;20153;-71
2021/01/01 06:11:01;;;;;;;58.15;32.83;;;2.20;96.20;;;;;;5092179;28;20035;-70
2021/01/01 06:13:33;;;;;;;58.17;32.83;;;2.00;96.50;;;;;;5093290;28;20081;-69
2021/01/01 06:16:04;;;;;;;63.90;34.33;;;2.00;96.70;;;;;;5094803;28;20024;-73
2021/01/01 06:18:34;;;;;;;62.90;37.65;;;2.00;96.60;;;;;;5096554;28;20371;-69
2021/01/01 06:21:08;;;;;;;58.45;37.13;;;2.10;96.60;;;;;;5097232;28;20024;-69
2021/01/01 06:23:39;;;;;;;62.00;37.40;;;2.10;96.50;;;;;;5095601;28;20111;-71
2021/01/01 06:26:09;;;;;;;64.78;35.47;;;2.10;96.40;;;;;;5097107;28;20046;-70
2021/01/01 06:28:37;;;;;;;61.53;35.63;;;2.00;96.30;;;;;;5095711;28;20051;-70
2021/01/01 06:31:05;;;;;;;61.22;36.40;;;2.10;96.40;;;;;;5095751;28;20358;-72
2021/01/01 06:33:32;;;;;;;49.40;31.98;;;2.00;96.40;;;;;;5097260;28;20135;-72
2021/01/01 06:35:58;;;;;;;43.92;29.00;;;2.00;96.40;;;;;;5097134;28;20032;-71
2021/01/01 06:38:39;;;;;;;41.67;27.88;;;2.00;96.30;;;;;;5095610;28;20384;-71
2021/01/01 06:41:11;;;;;;;89.47;53.45;;;2.00;96.40;;;;;;5095599;28;20024;-69
2021/01/01 06:43:54;;;;;;;43.28;28.90;;;2.10;96.40;;;;;;5095513;28;20458;-71
2021/01/01 06:46:38;;;;;;;43.20;25.77;;;2.10;96.20;;;;;;5096918;28;20119;-70
2021/01/01 06:49:06;;;;;;;40.80;24.58;;;2.10;96.10;;;;;;5095401;28;20032;-69
2021/01/01 06:51:32;;;;;;;54.03;36.30;;;2.00;96.00;;;;;;5095037;28;20032;-70
2021/01/01 06:54:14;;;;;;;51.25;34.17;;;2.00;96.30;;;;;;5095905;28;20063;-71
2021/01/01 06:56:43;;;;;;;50.85;31.08;;;2.00;96.30;;;;;;5094951;28;20032;-68
2021/01/01 06:59:11;;;;;;;53.03;32.88;;;2.00;96.30;;;;;;5095221;28;20024;-69
2021/01/01 07:01:44;;;;;;;64.10;32.85;;;2.00;96.30;;;;;;5095162;28;20031;-69
2021/01/01 07:04:11;;;;;;;76.35;46.95;;;2.00;96.20;;;;;;5096652;28;20109;-71
2021/01/01 07:06:38;;;;;;;88.78;53.17;;;2.10;96.30;;;;;;5095025;28;20043;-70
2021/01/01 07:09:06;;;;;;;77.82;46.50;;;2.10;96.10;;;;;;5096365;28;20024;-68
2021/01/01 07:11:32;;;;;;;69.65;38.55;;;2.10;96.10;;;;;;5094670;28;20120;-70
2021/01/01 07:14:09;;;;;;;62.88;39.88;;;2.20;96.10;;;;;;5096113;28;20509;-70
2021/01/01 07:16:43;;;;;;;62.38;39.50;;;2.20;96.00;;;;;;5096491;28;20031;-68
2021/01/01 07:19:09;;;;;;;61.55;39.55;;;2.30;95.90;;;;;;5095847;28;20404;-71
2021/01/01 07:21:39;;;;;;;59.08;39.45;;;2.30;95.90;;;;;;5094650;28;20111;-71
2021/01/01 07:24:06;;;;;;;68.95;40.58;;;2.20;96.30;;;;;;5095749;28;20020;-75
2021/01/01 07:26:32;;;;;;;67.00;41.10;;;2.20;96.30;;;;;;5093535;28;20036;-71
2021/01/01 07:29:00;;;;;;;67.35;41.22;;;2.20;96.40;;;;;;5094550;28;20038;-72
2021/01/01 07:31:26;;;;;;;75.43;46.30;;;2.20;96.30;;;;;;5094184;28;20465;-72
2021/01/01 07:33:52;;;;;;;85.20;51.30;;;2.30;96.30;;;;;;5095751;28;20415;-72
2021/01/01 07:36:18;;;;;;;105.85;58.90;;;2.30;96.40;;;;;;5094411;28;20038;-70
2021/01/01 07:38:46;;;;;;;145.20;74.38;;;2.40;96.30;;;;;;5094265;28;20020;-72
2021/01/01 07:41:13;;;;;;;100.47;61.03;;;2.50;96.20;;;;;;5094278;28;20028;-71
2021/01/01 07:43:40;;;;;;;96.30;58.00;;;2.60;96.10;;;;;;5094879;28;20462;-73
2021/01/01 07:46:07;;;;;;;105.35;65.47;;;2.70;96.10;;;;;;5095333;28;20020;-72
2021/01/01 07:48:34;;;;;;;91.65;56.25;;;2.70;95.90;;;;;;5095481;28;20469;-71
2021/01/01 07:51:04;;;;;;;89.82;52.92;;;2.80;95.90;;;;;;5095210;28;20137;-71
2021/01/01 07:53:29;;;;;;;110.20;63.70;;;2.80;95.90;;;;;;5095184;28;20024;-71
2021/01/01 07:56:00;;;;;;;147.73;82.63;;;2.80;96.00;;;;;;5094147;28;20035;-71
2021/01/01 07:58:28;;;;;;;338.13;137.43;;;2.90;95.80;;;;;;5095376;28;20177;-71
2021/01/01 08:00:59;;;;;;;179.45;85.50;;;3.00;95.70;;;;;;5093656;28;20028;-71
2021/01/01 08:03:25;;;;;;;189.18;83.07;;;3.10;95.70;;;;;;5094006;28;20032;-72
2021/01/01 08:05:52;;;;;;;126.70;63.00;;;3.20;95.40;;;;;;5093927;28;20427;-69
2021/01/01 08:08:22;;;;;;;125.97;83.90;;;3.20;95.30;;;;;;5095126;28;20085;-69
2021/01/01 08:10:52;;;;;;;142.27;66.38;;;3.30;95.20;;;;;;5095741;28;20024;-69
2021/01/01 08:13:30;;;;;;;104.10;59.50;;;3.40;94.90;;;;;;5093614;28;20435;-70
2021/01/01 08:15:59;;;;;;;84.07;50.33;;;3.50;95.40;;;;;;5093852;28;20032;-73
2021/01/01 08:18:26;;;;;;;82.93;47.63;;;3.60;95.40;;;;;;5093690;28;20119;-73
2021/01/01 08:20:57;;;;;;;69.72;42.17;;;3.60;95.30;;;;;;5093594;28;20030;-75
2021/01/01 08:23:25;;;;;;;91.80;47.38;;;3.70;95.00;;;;;;5093582;28;20047;-71
2021/01/01 08:25:52;;;;;;;77.20;46.70;;;3.80;94.70;;;;;;5093483;28;20024;-71
2021/01/01 08:28:22;;;;;;;68.05;41.80;;;3.90;95.10;;;;;;5092770;28;20124;-70
2021/01/01 08:31:03;;;;;;;63.05;39.45;;;3.90;94.80;;;;;;5092688;28;20031;-74
2021/01/01 08:33:38;;;;;;;68.07;42.63;;;3.90;94.50;;;;;;5094075;28;20420;-72
2021/01/01 08:36:08;;;;;;;72.10;46.22;;;4.00;94.60;;;;;;5094800;28;20028;-70
2021/01/01 08:38:36;;;;;;;187.35;86.60;;;4.00;94.70;;;;;;5094607;28;20043;-71
2021/01/01 08:41:02;;;;;;;204.55;86.57;;;4.10;94.60;;;;;;5093291;28;20118;-70
2021/01/01 08:43:28;;;;;;;382.75;125.13;;;4.20;94.80;;;;;;5093052;28;20537;-72
2021/01/01 08:45:55;;;;;;;314.20;108.70;;;4.20;94.60;;;;;;5094288;28;20032;-70
2021/01/01 08:48:21;;;;;;;473.00;165.40;;;4.30;94.80;;;;;;5093086;28;20062;-71
2021/01/01 08:50:51;;;;;;;181.45;73.97;;;4.40;94.90;;;;;;5092844;28;20024;-71
2021/01/01 08:53:19;;;;;;;96.20;44.47;;;4.50;94.60;;;;;;5094641;28;20024;-73
2021/01/01 08:55:55;;;;;;;49.25;31.83;;;4.50;95.00;;;;;;5092713;28;20028;-72
2021/01/01 08:58:21;;;;;;;220.30;78.57;;;4.60;95.20;;;;;;5094366;28;20024;-71
2021/01/01 09:00:47;;;;;;;68.00;38.55;;;4.70;95.10;;;;;;5092601;28;20035;-72
2021/01/01 09:03:16;;;;;;;115.78;54.10;;;4.80;94.40;;;;;;5092830;28;20047;-71
2021/01/01 09:05:42;;;;;;;77.25;42.38;;;4.80;95.20;;;;;;5092842;28;20036;-71
2021/01/01 09:08:15;;;;;;;76.05;40.63;;;4.90;95.00;;;;;;5092433;28;20379;-71
2021/01/01 09:10:45;;;;;;;49.28;33.35;;;5.00;94.30;;;;;;5093384;28;20027;-72
2021/01/01 09:13:26;;;;;;;57.95;35.05;;;5.10;95.10;;;;;;5091087;28;20209;-70
2021/01/01 09:16:03;;;;;;;51.72;33.42;;;5.30;94.70;;;;;;5091233;28;20055;-70
2021/01/01 09:18:31;;;;;;;52.53;31.70;;;5.40;94.60;;;;;;5090161;28;20068;-70
2021/01/01 09:21:09;;;;;;;54.00;33.30;;;5.70;93.50;;;;;;5090645;28;20021;-69
2021/01/01 09:23:36;;;;;;;47.10;29.95;;;6.30;96.90;;;;;;5089470;28;20085;-70
2021/01/01 09:26:02;;;;;;;44.35;29.85;;;7.20;96.10;;;;;;5091258;28;20036;-73
2021/01/01 09:28:28;;;;;;;51.03;35.17;;;8.00;92.70;;;;;;5092179;28;20032;-70
2021/01/01 09:30:54;;;;;;;43.53;28.50;;;8.60;96.30;;;;;;5092387;28;20480;-70
2021/01/01 09:33:20;;;;;;;41.35;29.67;;;9.60;94.60;;;;;;5093577;28;20056;-72
2021/01/01 09:35:46;;;;;;;38.08;27.33;;;10.10;92.30;;;;;;5090467;28;20469;-69
2021/01/01 09:38:12;;;;;;;45.95;31.50;;;10.60;90.30;;;;;;5092137;28;20024;-73
2021/01/01 09:40:38;;;;;;;35.63;25.05;;;11.10;86.00;;;;;;5091611;28;20095;-71
2021/01/01 09:43:05;;;;;;;49.22;36.42;;;11.50;81.70;;;;;;5091719;28;20420;-72
2021/01/01 09:45:32;;;;;;;37.92;26.75;;;11.90;87.70;;;;;;5092258;28;20043;-72
2021/01/01 09:47:58;;;;;;;34.00;24.98;;;12.10;85.70;;;;;;5092331;28;20400;-72
2021/01/01 09:50:23;;;;;;;65.15;48.60;;;12.50;82.70;;;;;;5094012;28;20024;-69
2021/01/01 09:52:49;;;;;;;42.72;22.98;;;12.60;75.80;;;;;;5096551;28;20127;-71
2021/01/01 09:55:15;;;;;;;32.42;22.77;;;12.60;71.20;;;;;;5096266;28;20473;-72
2021/01/01 09:57:41;;;;;;;67.32;47.80;;;12.70;72.00;;;;;;5097642;28;20492;-71
2021/01/01 10:00:10;;;;;;;39.20;27.00;;;12.30;78.20;;;;;;5096353;28;20119;-70
2021/01/01 10:02:35;;;;;;;40.42;27.23;;;12.80;82.90;;;;;;5097344;28;20031;-70
2021/01/01 10:05:01;;;;;;;34.60;24.05;;;13.10;73.20;;;;;;5097539;28;20565;-71
2021/01/01 10:07:27;;;;;;;35.03;23.95;;;13.10;72.40;;;;;;5095634;28;20028;-68
2021/01/01 10:09:53;;;;;;;40.60;26.73;;;12.60;72.00;;;;;;5096792;28;20028;-70
2021/01/01 10:12:19;;;;;;;51.35;33.33;;;12.60;82.50;;;;;;5097428;28;20559;-70
2021/01/01 10:14:45;;;;;;;33.70;23.67;;;13.10;72.90;;;;;;5097066;28;20090;-73
2021/01/01 10:17:11;;;;;;;33.65;22.42;;;13.20;72.60;;;;;;5097355;28;20040;-72
2021/01/01 10:19:41;;;;;;;33.50;23.55;;;13.70;73.60;;;;;;5097354;28;20389;-70
2021/01/01 10:22:08;;;;;;;159.13;91.07;;;13.90;75.70;;;;;;5095932;28;20032;-69
2021/01/01 10:24:34;;;;;;;52.72;35.90;;;13.50;68.20;;;;;;5095622;28;20034;-72
2021/01/01 10:27:00;;;;;;;149.30;102.60;;;12.70;69.80;;;;;;5095870;28;20424;-72
2021/01/01 10:29:26;;;;;;;48.65;34.50;;;12.80;69.60;;;;;;5095804;28;20051;-73
2021/01/01 10:31:52;;;;;;;44.10;28.58;;;12.40;73.40;;;;;;5095461;28;20071;-74
2021/01/01 10:34:18;;;;;;;65.78;44.90;;;13.10;79.30;;;;;;5095724;28;20035;-71
2021/01/01 10:36:44;;;;;;;64.82;40.05;;;14.20;68.60;;;;;;5095629;28;20119;-71
2021/01/01 10:39:10;;;;;;;104.32;68.93;;;14.70;70.80;;;;;;5095325;28;20118;-73
2021/01/01 10:41:37;;;;;;;91.97;56.70;;;14.30;64.10;;;;;;5095589;28;20028;-72
2021/01/01 10:44:04;;;;;;;69.38;48.70;;;13.80;64.50;;;;;;5096251;28;20033;-72
2021/01/01 10:46:30;;;;;;;78.75;52.80;;;14.30;66.30;;;;;;5095434;28;20032;-73
2021/01/01 10:48:55;;;;;;;79.63;49.45;;;13.60;66.80;;;;;;5095420;28;20026;-73
2021/01/01 10:51:25;;;;;;;174.85;110.18;;;13.40;69.20;;;;;;5096366;28;20028;-71
2021/01/01 10:53:51;;;;;;;90.88;52.10;;;13.90;67.50;;;;;;5095590;28;20032;-72
2021/01/01 10:56:28;;;;;;;143.40;84.57;;;13.60;72.30;;;;;;5094912;28;20032;-70
2021/01/01 10:58:54;;;;;;;80.75;48.47;;;14.20;71.50;;;;;;5094919;28;20024;-71
2021/01/01 11:01:24;;;;;;;124.20;82.38;;;14.70;71.80;;;;;;5094925;28;20024;-73
2021/01/01 11:03:51;;;;;;;76.75;54.63;;;14.50;64.70;;;;;;5095154;28;20126;-73
2021/01/01 11:06:17;;;;;;;107.50;65.10;;;14.50;66.30;;;;;;5094922;28;20443;-73
2021/01/01 11:08:44;;;;;;;57.22;38.50;;;13.90;71.70;;;;;;5096053;28;20466;-71
2021/01/01 11:11:12;;;;;;;52.13;36.83;;;14.30;71.50;;;;;;5095011;28;20031;-73
2021/01/01 11:13:56;;;;;;;44.60;31.83;;;14.80;68.10;;;;;;5094265;28;20048;-72
2021/01/01 12:23:37;;;;;;;16.83;12.35;;;15.50;68.00;;;;;;5095151;28;20385;-73
2021/01/01 12:25:34;;;;;;;20.92;14.25;;;15.60;63.40;;;;;;5083609;28;20125;-75
2021/01/01 12:28:03;;;;;;;16.48;12.65;;;15.50;62.40;;;;;;5093573;28;20051;-74
2021/01/01 12:30:31;;;;;;;15.65;12.15;;;15.00;60.50;;;;;;5093258;28;20451;-74
2021/01/01 12:32:57;;;;;;;19.13;13.80;;;15.00;63.20;;;;;;5094952;28;20111;-75
2021/01/01 12:35:23;;;;;;;18.38;13.15;;;15.00;63.30;;;;;;5093476;28;20465;-75
2021/01/01 12:38:03;;;;;;;24.60;16.42;;;15.70;64.70;;;;;;5093092;28;20035;-74
2021/01/01 12:40:29;;;;;;;58.85;41.50;;;15.50;61.20;;;;;;5094659;28;20024;-75
2021/01/01 12:42:55;;;;;;;36.55;25.77;;;15.10;60.50;;;;;;5094598;28;20081;-74
2021/01/01 12:45:22;;;;;;;116.18;84.28;;;14.90;62.60;;;;;;5092925;28;20068;-73
2021/01/01 12:47:50;;;;;;;52.25;38.75;;;14.60;61.90;;;;;;5093153;28;20059;-74
2021/01/01 12:50:16;;;;;;;30.25;20.83;;;15.00;62.30;;;;;;5092887;28;20024;-73
2021/01/01 12:52:51;;;;;;;42.53;30.40;;;15.20;59.20;;;;;;5094353;28;20032;-75
2021/01/01 12:55:16;;;;;;;25.02;18.33;;;15.80;61.00;;;;;;5093949;28;20053;-75
2021/01/01 12:57:42;;;;;;;38.33;25.67;;;16.10;59.00;;;;;;5092754;28;20110;-75
2021/01/01 13:00:08;;;;;;;19.05;13.35;;;16.80;57.90;;;;;;5094286;28;20032;-75
2021/01/01 13:02:34;;;;;;;23.65;16.67;;;17.10;59.10;;;;;;5092842;28;20024;-74
2021/01/01 13:05:00;;;;;;;39.75;27.40;;;17.20;56.70;;;;;;5093078;28;20032;-74
2021/01/01 13:07:26;;;;;;;35.08;24.17;;;16.90;55.10;;;;;;5094194;28;20036;-75
2021/01/01 13:09:52;;;;;;;24.80;16.75;;;16.70;56.00;;;;;;5092957;28;20366;-74
2021/01/01 13:12:17;;;;;;;25.27;17.83;;;15.70;56.20;;;;;;5092064;28;20488;-72
2021/01/01 13:14:43;;;;;;;33.25;24.85;;;14.90;58.90;;;;;;5093633;28;20052;-74
2021/01/01 13:17:09;;;;;;;36.80;27.52;;;14.50;62.80;;;;;;5091348;28;20444;-73
2021/01/01 13:19:35;;;;;;;29.40;22.15;;;14.10;64.70;;;;;;5090977;28;20439;-73
2021/01/01 13:22:01;;;;;;;27.45;19.05;;;13.70;65.10;;;;;;5091368;28;20457;-74
2021/01/01 13:24:26;;;;;;;33.92;24.17;;;13.40;68.40;;;;;;5092169;28;20099;-72
2021/01/01 13:26:52;;;;;;;53.63;37.30;;;13.10;68.80;;;;;;5093182;28;20122;-74
2021/01/01 13:29:18;;;;;;;47.55;37.58;;;13.00;71.60;;;;;;5094151;28;20468;-74
2021/01/01 13:31:44;;;;;;;51.42;37.33;;;12.70;71.50;;;;;;5092517;28;20024;-73
2021/01/01 13:34:10;;;;;;;42.40;32.85;;;12.60;72.50;;;;;;5093248;28;20059;-73
2021/01/01 13:36:38;;;;;;;67.00;47.00;;;12.50;73.50;;;;;;5092457;28;20362;-74
2021/01/01 13:39:05;;;;;;;70.28;48.90;;;12.40;74.20;;;;;;5092236;28;20443;-72